sensor_id;sensor_type;location;lat;lon;timestamp;pressure;altitude;pressure_sealevel;temperature;humidity
929;BME280;451;47.988;7.842;2023-07-13T00:04:45;98490.56;;;23.02;58.31
929;BME280;451;47.988;7.842;2023-07-13T00:13:48;98511.34;;;22.89;57.35
929;BME280;451;47.988;7.842;2023-07-13T00:22:53;98490.97;;;23.10;55.49
929;BME280;451;47.988;7.842;2023-07-13T00:31:56;98492.31;;;23.13;54.22
929;BME280;451;47.988;7.842;2023-07-13T00:41:01;98493.78;;;23.25;54.63
929;BME280;451;47.988;7.842;2023-07-13T00:50:07;98501.41;;;23.33;60.61
929;BME280;451;47.988;7.842;2023-07-13T00:59:15;98504.47;;;23.20;62.94
929;BME280;451;47.988;7.842;2023-07-13T01:08:22;98489.25;;;22.82;68.48
929;BME280;451;47.988;7.842;2023-07-13T01:17:27;98491.28;;;22.20;74.25
929;BME280;451;47.988;7.842;2023-07-13T01:26:32;98494.63;;;21.82;72.66
929;BME280;451;47.988;7.842;2023-07-13T01:35:35;98487.41;;;21.38;73.31
929;BME280;451;47.988;7.842;2023-07-13T01:44:39;98477.53;;;20.98;77.20
929;BME280;451;47.988;7.842;2023-07-13T01:53:43;98470.72;;;20.79;78.45
929;BME280;451;47.988;7.842;2023-07-13T02:02:48;98466.63;;;20.88;78.13
929;BME280;451;47.988;7.842;2023-07-13T02:11:51;98468.72;;;20.86;79.23
929;BME280;451;47.988;7.842;2023-07-13T02:20:56;98469.28;;;20.88;80.06
929;BME280;451;47.988;7.842;2023-07-13T02:29:59;98464.63;;;20.95;79.07
929;BME280;451;47.988;7.842;2023-07-13T02:39:05;98473.09;;;21.15;76.32
929;BME280;451;47.988;7.842;2023-07-13T02:48:13;98435.28;;;20.72;77.93
929;BME280;451;47.988;7.842;2023-07-13T02:57:18;98432.03;;;20.70;75.88
929;BME280;451;47.988;7.842;2023-07-13T03:06:21;98459.66;;;20.75;77.40
929;BME280;451;47.988;7.842;2023-07-13T03:15:30;98482.59;;;20.48;79.71
929;BME280;451;47.988;7.842;2023-07-13T03:24:35;98444.59;;;19.99;81.41
929;BME280;451;47.988;7.842;2023-07-13T03:33:42;98491.78;;;20.40;80.81
929;BME280;451;47.988;7.842;2023-07-13T03:42:46;98505.66;;;20.07;81.82
929;BME280;451;47.988;7.842;2023-07-13T03:51:53;98504.47;;;19.92;82.15
929;BME280;451;47.988;7.842;2023-07-13T04:00:57;98504.22;;;19.52;85.93
929;BME280;451;47.988;7.842;2023-07-13T04:10:02;98512.34;;;19.87;83.98
929;BME280;451;47.988;7.842;2023-07-13T04:19:07;98528.25;;;20.46;81.15
929;BME280;451;47.988;7.842;2023-07-13T04:28:13;98525.44;;;20.65;77.75
929;BME280;451;47.988;7.842;2023-07-13T04:37:16;98549.16;;;20.73;78.09
929;BME280;451;47.988;7.842;2023-07-13T04:46:20;98553.56;;;20.56;80.84
929;BME280;451;47.988;7.842;2023-07-13T04:55:23;98553.81;;;20.66;79.40
929;BME280;451;47.988;7.842;2023-07-13T05:04:28;98565.97;;;20.50;81.51
929;BME280;451;47.988;7.842;2023-07-13T05:13:31;98505.53;;;20.02;83.13
929;BME280;451;47.988;7.842;2023-07-13T05:22:35;98583.53;;;21.04;79.67
929;BME280;451;47.988;7.842;2023-07-13T05:31:40;98589.28;;;21.48;75.43
929;BME280;451;47.988;7.842;2023-07-13T05:40:45;98590.81;;;21.72;74.28
929;BME280;451;47.988;7.842;2023-07-13T05:49:48;98579.34;;;21.88;73.90
929;BME280;451;47.988;7.842;2023-07-13T05:58:53;98573.28;;;21.64;71.69
929;BME280;451;47.988;7.842;2023-07-13T06:07:56;98540.06;;;21.77;67.90
929;BME280;451;47.988;7.842;2023-07-13T06:17:00;98610.63;;;22.28;66.45
929;BME280;451;47.988;7.842;2023-07-13T06:26:04;98607.03;;;22.39;64.35
929;BME280;451;47.988;7.842;2023-07-13T06:35:08;98584.31;;;22.58;63.79
929;BME280;451;47.988;7.842;2023-07-13T06:44:14;98560.09;;;22.86;62.04
929;BME280;451;47.988;7.842;2023-07-13T06:53:19;98522.53;;;22.86;60.17
929;BME280;451;47.988;7.842;2023-07-13T07:02:22;98633.53;;;23.02;60.10
929;BME280;451;47.988;7.842;2023-07-13T07:11:26;98627.94;;;23.42;57.30
929;BME280;451;47.988;7.842;2023-07-13T07:20:29;98630.53;;;23.81;55.51
929;BME280;451;47.988;7.842;2023-07-13T07:29:35;98645.53;;;24.52;51.75
929;BME280;451;47.988;7.842;2023-07-13T07:38:38;98649.22;;;24.73;57.49
929;BME280;451;47.988;7.842;2023-07-13T07:47:43;98639.94;;;24.05;61.21
929;BME280;451;47.988;7.842;2023-07-13T07:56:46;98657.31;;;24.78;57.68
929;BME280;451;47.988;7.842;2023-07-13T08:05:52;98647.84;;;25.02;56.09
929;BME280;451;47.988;7.842;2023-07-13T08:14:55;98650.56;;;25.07;54.03
929;BME280;451;47.988;7.842;2023-07-13T08:24:00;98658.59;;;25.49;53.07
929;BME280;451;47.988;7.842;2023-07-13T08:33:03;98646.03;;;25.18;53.58
929;BME280;451;47.988;7.842;2023-07-13T08:42:13;98665.50;;;25.72;49.75
929;BME280;451;47.988;7.842;2023-07-13T08:51:28;98630.63;;;26.33;45.85
929;BME280;451;47.988;7.842;2023-07-13T09:00:40;98657.19;;;25.94;44.55
929;BME280;451;47.988;7.842;2023-07-13T09:09:56;98654.81;;;27.49;43.21
929;BME280;451;47.988;7.842;2023-07-13T09:19:05;98636.16;;;29.90;40.36
929;BME280;451;47.988;7.842;2023-07-13T09:28:11;98647.41;;;29.31;41.37
929;BME280;451;47.988;7.842;2023-07-13T09:37:17;98647.56;;;29.87;40.14
929;BME280;451;47.988;7.842;2023-07-13T09:46:21;98580.75;;;30.34;36.29
929;BME280;451;47.988;7.842;2023-07-13T09:55:30;98619.91;;;31.80;36.25
929;BME280;451;47.988;7.842;2023-07-13T10:04:34;98435.22;;;27.88;40.18
929;BME280;451;47.988;7.842;2023-07-13T10:13:41;98650.41;;;30.57;37.83
929;BME280;451;47.988;7.842;2023-07-13T10:22:52;98638.28;;;31.60;37.32
929;BME280;451;47.988;7.842;2023-07-13T10:31:59;98631.06;;;30.77;37.65
929;BME280;451;47.988;7.842;2023-07-13T10:41:04;98513.56;;;29.32;38.38
929;BME280;451;47.988;7.842;2023-07-13T10:50:17;98615.19;;;29.77;38.20
929;BME280;451;47.988;7.842;2023-07-13T10:59:25;98607.59;;;29.98;36.99
929;BME280;451;47.988;7.842;2023-07-13T11:08:35;98632.22;;;31.63;34.09
929;BME280;451;47.988;7.842;2023-07-13T11:17:48;98635.06;;;29.20;38.61
929;BME280;451;47.988;7.842;2023-07-13T11:26:53;98619.13;;;31.66;35.83
929;BME280;451;47.988;7.842;2023-07-13T11:36:02;98621.47;;;29.96;37.68
929;BME280;451;47.988;7.842;2023-07-13T11:45:19;98609.13;;;30.60;36.51
929;BME280;451;47.988;7.842;2023-07-13T11:54:26;98615.47;;;29.76;37.51
929;BME280;451;47.988;7.842;2023-07-13T12:03:32;98611.75;;;29.90;37.67
929;BME280;451;47.988;7.842;2023-07-13T12:12:36;98618.09;;;31.20;37.31
929;BME280;451;47.988;7.842;2023-07-13T12:21:41;98570.06;;;31.57;35.73
929;BME280;451;47.988;7.842;2023-07-13T12:30:49;98574.72;;;30.69;36.80
929;BME280;451;47.988;7.842;2023-07-13T12:39:53;98606.03;;;31.27;35.11
929;BME280;451;47.988;7.842;2023-07-13T12:48:57;98596.34;;;30.42;36.60
929;BME280;451;47.988;7.842;2023-07-13T12:58:04;98602.22;;;29.50;38.23
929;BME280;451;47.988;7.842;2023-07-13T13:07:08;98590.34;;;30.26;37.18
929;BME280;451;47.988;7.842;2023-07-13T13:16:18;98578.69;;;30.77;36.19
929;BME280;451;47.988;7.842;2023-07-13T13:25:22;98590.41;;;29.84;38.52
929;BME280;451;47.988;7.842;2023-07-13T13:34:26;98606.75;;;29.79;36.66
929;BME280;451;47.988;7.842;2023-07-13T13:43:30;98569.94;;;29.96;38.26
929;BME280;451;47.988;7.842;2023-07-13T13:52:34;98600.72;;;29.63;38.58
929;BME280;451;47.988;7.842;2023-07-13T14:01:38;98590.16;;;30.04;38.90
929;BME280;451;47.988;7.842;2023-07-13T14:10:43;98601.06;;;28.80;39.77
929;BME280;451;47.988;7.842;2023-07-13T14:19:47;98593.41;;;27.75;42.40
929;BME280;451;47.988;7.842;2023-07-13T14:28:55;98601.69;;;27.35;42.55
929;BME280;451;47.988;7.842;2023-07-13T14:37:59;98599.41;;;28.16;41.62
929;BME280;451;47.988;7.842;2023-07-13T14:47:05;98611.25;;;26.92;44.10
929;BME280;451;47.988;7.842;2023-07-13T14:56:10;98477.91;;;26.82;42.76
929;BME280;451;47.988;7.842;2023-07-13T15:05:17;98608.31;;;27.67;42.84
929;BME280;451;47.988;7.842;2023-07-13T15:14:21;98600.56;;;28.44;42.01
929;BME280;451;47.988;7.842;2023-07-13T15:23:26;98588.75;;;28.93;40.65
929;BME280;451;47.988;7.842;2023-07-13T15:32:29;98519.13;;;27.73;42.30
929;BME280;451;47.988;7.842;2023-07-13T15:41:33;98593.13;;;28.60;40.16
929;BME280;451;47.988;7.842;2023-07-13T15:50:43;98583.69;;;28.86;40.53
929;BME280;451;47.988;7.842;2023-07-13T15:59:48;98512.78;;;28.26;40.03
929;BME280;451;47.988;7.842;2023-07-13T16:08:52;98545.00;;;27.84;41.75
929;BME280;451;47.988;7.842;2023-07-13T16:17:57;98587.63;;;27.33;42.05
929;BME280;451;47.988;7.842;2023-07-13T16:27:00;98580.56;;;28.01;40.70
929;BME280;451;47.988;7.842;2023-07-13T16:36:10;98582.41;;;29.97;39.07
929;BME280;451;47.988;7.842;2023-07-13T16:45:14;98605.06;;;28.87;38.74
929;BME280;451;47.988;7.842;2023-07-13T16:54:20;98600.59;;;29.25;39.72
929;BME280;451;47.988;7.842;2023-07-13T17:03:24;98600.16;;;28.61;38.75
929;BME280;451;47.988;7.842;2023-07-13T17:12:30;98579.28;;;29.43;37.89
929;BME280;451;47.988;7.842;2023-07-13T17:21:34;98590.25;;;28.46;38.45
929;BME280;451;47.988;7.842;2023-07-13T17:30:40;98597.16;;;28.28;39.84
929;BME280;451;47.988;7.842;2023-07-13T17:39:44;98600.28;;;27.47;40.33
929;BME280;451;47.988;7.842;2023-07-13T17:48:49;98590.84;;;27.40;40.38
929;BME280;451;47.988;7.842;2023-07-13T17:57:52;98607.44;;;26.82;40.81
929;BME280;451;47.988;7.842;2023-07-13T18:06:57;98608.00;;;26.79;41.13
929;BME280;451;47.988;7.842;2023-07-13T18:16:14;98593.16;;;26.67;41.16
929;BME280;451;47.988;7.842;2023-07-13T18:25:23;98562.06;;;25.93;41.28
929;BME280;451;47.988;7.842;2023-07-13T18:34:26;98628.31;;;25.74;42.81
929;BME280;451;47.988;7.842;2023-07-13T18:43:31;98501.69;;;24.92;43.00
929;BME280;451;47.988;7.842;2023-07-13T18:52:34;98621.84;;;25.75;42.78
929;BME280;451;47.988;7.842;2023-07-13T19:01:39;98627.19;;;25.60;44.15
929;BME280;451;47.988;7.842;2023-07-13T19:10:42;98627.03;;;25.35;45.01
929;BME280;451;47.988;7.842;2023-07-13T19:19:47;98635.69;;;25.42;45.68
929;BME280;451;47.988;7.842;2023-07-13T19:28:51;98645.13;;;24.97;46.84
929;BME280;451;47.988;7.842;2023-07-13T19:37:57;98664.47;;;24.94;47.27
929;BME280;451;47.988;7.842;2023-07-13T19:47:00;98667.78;;;24.74;52.13
929;BME280;451;47.988;7.842;2023-07-13T19:56:07;98677.50;;;24.00;55.41
929;BME280;451;47.988;7.842;2023-07-13T20:05:11;98668.28;;;23.47;57.95
929;BME280;451;47.988;7.842;2023-07-13T20:14:17;98693.81;;;23.33;58.55
929;BME280;451;47.988;7.842;2023-07-13T20:23:21;98704.56;;;23.00;59.04
929;BME280;451;47.988;7.842;2023-07-13T20:32:28;98704.59;;;22.55;60.44
929;BME280;451;47.988;7.842;2023-07-13T20:41:34;98701.66;;;22.56;60.81
929;BME280;451;47.988;7.842;2023-07-13T20:50:38;98707.75;;;22.68;59.54
929;BME280;451;47.988;7.842;2023-07-13T20:59:41;98713.53;;;22.32;61.07
929;BME280;451;47.988;7.842;2023-07-13T21:08:46;98712.78;;;22.20;61.19
929;BME280;451;47.988;7.842;2023-07-13T21:17:50;98731.47;;;22.03;61.50
929;BME280;451;47.988;7.842;2023-07-13T21:26:56;98724.63;;;21.95;61.37
929;BME280;451;47.988;7.842;2023-07-13T21:36:00;98730.78;;;21.84;61.87
929;BME280;451;47.988;7.842;2023-07-13T21:45:17;98726.06;;;21.51;63.53
929;BME280;451;47.988;7.842;2023-07-13T21:54:21;98723.06;;;21.48;63.67
929;BME280;451;47.988;7.842;2023-07-13T22:03:27;98734.94;;;21.17;64.80
929;BME280;451;47.988;7.842;2023-07-13T22:12:32;98725.28;;;20.74;67.02
929;BME280;451;47.988;7.842;2023-07-13T22:21:39;98722.59;;;20.74;66.43
929;BME280;451;47.988;7.842;2023-07-13T22:30:43;98715.81;;;20.48;67.63
929;BME280;451;47.988;7.842;2023-07-13T22:39:49;98724.09;;;20.59;67.08
929;BME280;451;47.988;7.842;2023-07-13T22:48:55;98669.94;;;19.92;68.43
929;BME280;451;47.988;7.842;2023-07-13T22:58:00;98681.44;;;19.92;69.33
929;BME280;451;47.988;7.842;2023-07-13T23:07:03;98699.13;;;20.05;69.58
929;BME280;451;47.988;7.842;2023-07-13T23:16:11;98690.69;;;19.90;69.17
929;BME280;451;47.988;7.842;2023-07-13T23:25:16;98648.59;;;19.37;70.20
929;BME280;451;47.988;7.842;2023-07-13T23:34:21;98659.81;;;19.46;71.30
929;BME280;451;47.988;7.842;2023-07-13T23:43:24;98693.75;;;19.57;71.89
929;BME280;451;47.988;7.842;2023-07-13T23:52:30;98690.66;;;19.35;72.69
